Time;durP1;ratioP1;P1;durP2;ratioP2;P2;SDS_P1;SDS_P2;PMS_P1;PMS_P2;Temp;Humidity;BMP_temperature;BMP_pressure;BME280_temperature;BME280_humidity;BME280_pressure;Samples;Min_cycle;Max_cycle;Signal;HPM_P1;HPM_P2
2022/11/30 00:00:32;;;;;;;33.03;23.75;;;7.30;99.90;;;;;;5065663;28;20060;-72
2022/11/30 00:02:58;;;;;;;36.22;25.30;;;7.30;99.90;;;;;;5056140;28;20036;-72
2022/11/30 00:05:23;;;;;;;34.72;26.42;;;7.30;99.90;;;;;;5065105;28;20505;-72
2022/11/30 00:07:50;;;;;;;37.05;26.00;;;7.30;99.90;;;;;;5080086;28;20086;-72
2022/11/30 00:10:16;;;;;;;38.50;27.98;;;7.30;99.90;;;;;;5055972;28;20044;-72
2022/11/30 00:12:42;;;;;;;39.08;26.77;;;7.30;99.90;;;;;;5056872;28;20444;-72
2022/11/30 00:15:11;;;;;;;37.60;27.45;;;7.30;99.90;;;;;;5059040;28;20079;-72
2022/11/30 00:17:37;;;;;;;38.80;25.85;;;7.30;99.90;;;;;;5057545;28;20093;-72
2022/11/30 00:20:03;;;;;;;37.20;26.60;;;7.30;99.90;;;;;;5057832;28;20694;-72
2022/11/30 00:22:28;;;;;;;37.08;25.55;;;7.30;99.90;;;;;;5060595;28;20048;-72
2022/11/30 00:24:54;;;;;;;39.13;28.42;;;7.30;99.90;;;;;;5069009;28;20047;-72
2022/11/30 00:27:20;;;;;;;37.95;25.15;;;7.30;99.90;;;;;;5058514;28;20036;-72
2022/11/30 00:29:45;;;;;;;41.45;27.90;;;7.30;99.90;;;;;;5060492;28;20028;-72
2022/11/30 00:32:11;;;;;;;39.80;29.65;;;7.30;99.90;;;;;;5062946;28;20056;-72
2022/11/30 00:34:36;;;;;;;39.80;26.65;;;7.30;99.90;;;;;;5056539;28;20742;-72
2022/11/30 00:37:02;;;;;;;44.83;28.67;;;7.30;99.90;;;;;;5053682;28;20070;-72
2022/11/30 00:39:27;;;;;;;45.15;30.13;;;7.30;99.90;;;;;;5057998;28;20120;-72
2022/11/30 00:41:53;;;;;;;40.80;27.92;;;7.30;99.90;;;;;;5061458;28;20057;-72
2022/11/30 00:44:19;;;;;;;44.90;28.98;;;7.30;99.90;;;;;;5039335;28;20249;-72
2022/11/30 00:46:44;;;;;;;44.97;27.90;;;7.30;99.90;;;;;;5050344;28;20504;-72
2022/11/30 00:49:10;;;;;;;48.08;29.95;;;7.30;99.90;;;;;;5060560;28;20048;-72
2022/11/30 00:51:37;;;;;;;45.00;30.15;;;7.30;99.90;;;;;;5060514;28;20502;-72
2022/11/30 00:54:03;;;;;;;;;;;7.30;99.90;;;;;;5066658;28;20495;-72
2022/11/30 00:56:28;;;;;;;49.38;29.95;;;7.20;99.90;;;;;;5059642;28;19920;-71
2022/11/30 00:58:54;;;;;;;48.15;30.38;;;7.20;99.90;;;;;;5054828;28;20051;-72
2022/11/30 01:01:20;;;;;;;48.67;33.30;;;7.20;99.90;;;;;;5056230;28;20043;-71
2022/11/30 01:03:45;;;;;;;53.60;31.60;;;7.20;99.90;;;;;;5066558;28;20033;-72
2022/11/30 01:06:11;;;;;;;51.58;30.63;;;7.20;99.90;;;;;;5060248;28;20048;-72
2022/11/30 01:08:37;;;;;;;52.45;32.90;;;7.20;99.90;;;;;;5065332;28;20036;-72
2022/11/30 01:11:21;;;;;;;60.15;31.77;;;7.20;99.90;;;;;;5047475;28;20048;-72
2022/11/30 01:13:47;;;;;;;57.17;32.15;;;7.20;99.90;;;;;;5064477;28;20131;-72
2022/11/30 01:16:16;;;;;;;58.38;32.58;;;7.10;99.90;;;;;;5063484;28;20123;-72
2022/11/30 01:18:42;;;;;;;61.25;33.28;;;7.20;99.90;;;;;;5051340;28;20040;-72
2022/11/30 01:21:10;;;;;;;63.50;32.13;;;7.20;99.90;;;;;;5053218;28;20054;-72
2022/11/30 01:23:36;;;;;;;60.60;32.88;;;7.20;99.90;;;;;;5063683;28;20428;-73
2022/11/30 01:26:01;;;;;;;60.25;32.97;;;7.20;99.90;;;;;;5079546;28;20043;-72
2022/11/30 01:28:27;;;;;;;61.33;33.50;;;7.20;99.90;;;;;;5078529;28;20087;-72
2022/11/30 01:30:58;;;;;;;63.10;38.30;;;7.10;99.90;;;;;;5056307;28;20104;-72
2022/11/30 01:33:24;;;;;;;64.93;33.58;;;7.20;99.90;;;;;;5064768;28;20493;-72
2022/11/30 01:36:04;;;;;;;66.80;35.38;;;7.20;99.90;;;;;;5067278;28;20135;-72
2022/11/30 01:38:36;;;;;;;65.13;36.13;;;7.10;99.90;;;;;;5075032;28;20451;-72
2022/11/30 01:41:03;;;;;;;73.45;36.40;;;7.20;99.90;;;;;;5051407;28;20127;-72
2022/11/30 01:43:44;;;;;;;66.40;35.67;;;7.20;99.90;;;;;;5062825;28;20041;-72
2022/11/30 01:46:21;;;;;;;59.63;33.45;;;7.20;99.90;;;;;;5050909;28;20142;-72
2022/11/30 01:48:54;;;;;;;56.92;35.05;;;7.20;99.90;;;;;;5065664;28;20080;-72
2022/11/30 01:51:20;;;;;;;57.55;33.20;;;7.10;99.90;;;;;;5092861;28;20059;-72
2022/11/30 01:53:45;;;;;;;54.13;32.65;;;7.10;99.90;;;;;;5063188;28;20041;-72
2022/11/30 01:56:11;;;;;;;57.40;33.75;;;7.10;99.90;;;;;;5086960;28;20083;-72
2022/11/30 01:58:36;;;;;;;46.90;31.42;;;7.10;99.90;;;;;;5063095;28;20674;-72
2022/11/30 02:01:02;;;;;;;47.13;30.52;;;7.10;99.90;;;;;;5055691;28;20199;-72
2022/11/30 02:03:43;;;;;;;42.45;29.98;;;7.10;99.90;;;;;;5060580;28;20135;-72
2022/11/30 02:06:09;;;;;;;41.03;29.30;;;7.10;99.90;;;;;;5056754;28;20142;-72
2022/11/30 02:08:35;;;;;;;46.25;30.67;;;7.00;99.90;;;;;;5051416;28;20045;-70
2022/11/30 02:11:04;;;;;;;46.80;30.67;;;7.00;99.90;;;;;;5062714;28;20036;-73
2022/11/30 02:14:00;;;;;;;47.67;32.38;;;7.00;99.90;;;;;;5049971;28;20049;-73
2022/11/30 02:16:41;;;;;;;45.90;30.38;;;6.90;99.90;;;;;;5055779;28;20399;-73
2022/11/30 02:19:32;;;;;;;49.15;30.85;;;6.90;99.90;;;;;;5061478;28;20048;-73
2022/11/30 02:22:09;;;;;;;46.00;30.98;;;6.90;99.90;;;;;;5086301;28;20053;-73
2022/11/30 02:25:01;;;;;;;;;;;6.90;99.90;;;;;;5054401;28;20382;-73
2022/11/30 02:27:39;;;;;;;44.05;29.60;;;6.90;99.90;;;;;;5064263;28;20011;-73
2022/11/30 02:30:12;;;;;;;41.33;28.75;;;6.90;99.90;;;;;;5050604;28;20040;-73
2022/11/30 02:33:01;;;;;;;42.92;28.90;;;6.90;99.90;;;;;;5057993;28;20411;-72
2022/11/30 02:35:30;;;;;;;40.38;27.98;;;6.90;99.90;;;;;;5054105;28;20037;-73
2022/11/30 02:37:57;;;;;;;42.10;29.70;;;6.90;99.90;;;;;;5043716;28;20041;-73
2022/11/30 02:40:23;;;;;;;40.75;28.58;;;6.90;99.90;;;;;;5053605;28;20094;-73
2022/11/30 02:42:50;;;;;;;40.30;28.05;;;6.90;99.90;;;;;;5057854;28;20040;-73
2022/11/30 02:45:18;;;;;;;;;;;6.90;99.90;;;;;;5057791;28;20487;-73
2022/11/30 02:47:54;;;;;;;44.47;29.27;;;6.90;99.90;;;;;;5049417;28;19971;-72
2022/11/30 02:50:36;;;;;;;42.55;29.60;;;6.80;99.90;;;;;;5052546;28;20566;-73
2022/11/30 02:53:03;;;;;;;44.05;29.80;;;6.90;99.90;;;;;;5060510;28;20123;-73
2022/11/30 02:55:30;;;;;;;46.22;32.65;;;6.80;99.90;;;;;;5081653;28;20106;-73
2022/11/30 02:57:56;;;;;;;;;;;6.90;99.90;;;;;;5051304;28;20597;-72
2022/11/30 03:00:21;;;;;;;48.13;30.42;;;6.80;99.90;;;;;;5051780;28;19920;-72
2022/11/30 03:02:47;;;;;;;48.08;31.52;;;6.80;99.90;;;;;;5068158;28;20053;-73
2022/11/30 03:05:13;;;;;;;47.05;30.90;;;6.80;99.90;;;;;;5053036;28;20048;-73
2022/11/30 03:07:38;;;;;;;47.35;31.70;;;6.90;99.90;;;;;;5059388;28;20125;-73
2022/11/30 03:10:05;;;;;;;47.67;33.72;;;6.90;99.90;;;;;;5060851;28;20055;-72
2022/11/30 03:12:31;;;;;;;46.37;31.50;;;6.80;99.90;;;;;;5065081;28;20111;-73
2022/11/30 03:14:56;;;;;;;43.85;30.27;;;6.80;99.90;;;;;;5060519;28;20720;-73
2022/11/30 03:17:22;;;;;;;44.63;30.77;;;6.90;99.90;;;;;;5060588;28;20036;-73
2022/11/30 03:19:47;;;;;;;43.78;29.27;;;6.80;99.90;;;;;;5064395;28;20520;-73
2022/11/30 03:22:13;;;;;;;45.33;30.40;;;6.90;99.90;;;;;;5080809;28;20037;-72
2022/11/30 03:24:39;;;;;;;41.92;28.88;;;6.80;99.90;;;;;;5064451;28;20127;-73
2022/11/30 03:27:04;;;;;;;40.05;29.40;;;6.90;99.90;;;;;;5062945;28;20045;-72
2022/11/30 03:29:30;;;;;;;39.17;28.00;;;6.90;99.90;;;;;;5064246;28;20041;-73
2022/11/30 03:31:56;;;;;;;41.15;29.13;;;6.90;99.90;;;;;;5060251;28;20410;-73
2022/11/30 03:34:24;;;;;;;41.42;28.65;;;6.80;99.90;;;;;;5056801;28;20086;-73
2022/11/30 03:36:50;;;;;;;39.95;27.08;;;6.80;99.90;;;;;;5056374;28;20410;-72
2022/11/30 03:39:16;;;;;;;41.08;26.55;;;6.80;99.90;;;;;;5050094;28;20045;-74
2022/11/30 03:41:41;;;;;;;43.03;29.50;;;6.80;99.90;;;;;;5063148;28;20044;-73
2022/11/30 03:44:07;;;;;;;44.25;29.73;;;6.80;99.90;;;;;;5058752;28;20091;-73
2022/11/30 03:46:33;;;;;;;44.45;29.85;;;6.80;99.90;;;;;;5056587;28;20709;-73
2022/11/30 03:48:58;;;;;;;46.35;30.50;;;6.80;99.90;;;;;;5062875;28;20040;-73
2022/11/30 03:51:24;;;;;;;43.00;29.60;;;6.80;99.90;;;;;;5058105;28;20158;-72
2022/11/30 03:53:50;;;;;;;44.17;29.70;;;6.80;99.90;;;;;;5058412;28;20151;-73
2022/11/30 03:56:15;;;;;;;46.50;30.30;;;6.80;99.90;;;;;;5051738;28;20074;-73
2022/11/30 03:58:41;;;;;;;43.00;30.98;;;6.80;99.90;;;;;;5059412;28;20036;-73
2022/11/30 04:01:13;;;;;;;43.60;30.50;;;6.80;99.90;;;;;;5055444;28;20033;-73
2022/11/30 04:03:39;;;;;;;42.97;29.60;;;6.80;99.90;;;;;;5075453;28;20435;-73
2022/11/30 04:06:06;;;;;;;45.58;29.75;;;6.90;99.90;;;;;;5051988;28;22113;-73
2022/11/30 04:08:33;;;;;;;40.97;28.95;;;6.90;99.90;;;;;;5056147;28;20495;-73
2022/11/30 04:11:00;;;;;;;46.17;28.98;;;6.90;99.90;;;;;;5050418;28;20064;-73
2022/11/30 04:13:27;;;;;;;42.92;28.60;;;6.90;99.90;;;;;;5052344;28;20041;-73
2022/11/30 04:15:53;;;;;;;41.10;29.60;;;6.80;99.90;;;;;;5057123;28;20088;-72
2022/11/30 04:18:21;;;;;;;43.38;29.40;;;6.80;99.90;;;;;;5080207;28;20059;-73
2022/11/30 04:20:51;;;;;;;41.42;29.13;;;6.90;99.90;;;;;;5048950;28;20057;-73
2022/11/30 04:23:17;;;;;;;40.60;27.90;;;6.90;99.90;;;;;;5052026;28;20048;-73
2022/11/30 04:25:42;;;;;;;39.33;29.02;;;6.80;99.90;;;;;;5056057;28;20036;-73
2022/11/30 04:28:09;;;;;;;39.05;26.65;;;6.90;99.90;;;;;;5079533;28;20434;-73
2022/11/30 04:30:36;;;;;;;40.88;29.52;;;6.80;99.90;;;;;;5055968;28;20043;-72
2022/11/30 04:33:02;;;;;;;43.20;28.17;;;6.80;99.90;;;;;;5065934;28;20044;-73
2022/11/30 04:35:28;;;;;;;41.33;28.65;;;6.80;99.90;;;;;;5075794;28;20517;-73
2022/11/30 04:37:53;;;;;;;39.13;28.30;;;6.80;99.90;;;;;;5055429;28;20041;-72
2022/11/30 04:40:19;;;;;;;39.10;27.02;;;6.80;99.90;;;;;;5062555;28;20052;-72
2022/11/30 04:42:45;;;;;;;35.83;26.15;;;6.80;99.90;;;;;;5062593;28;20401;-72
2022/11/30 04:45:11;;;;;;;39.10;27.35;;;6.80;99.90;;;;;;5067131;28;20638;-72
2022/11/30 04:47:37;;;;;;;36.70;26.30;;;6.80;99.90;;;;;;5056751;28;20166;-73
2022/11/30 04:50:03;;;;;;;36.45;27.58;;;6.80;99.90;;;;;;5061773;28;20390;-72
2022/11/30 04:52:29;;;;;;;37.20;26.63;;;6.80;99.90;;;;;;5095450;28;20118;-72
2022/11/30 04:54:55;;;;;;;38.85;28.63;;;6.70;99.90;;;;;;5051382;28;20040;-73
2022/11/30 04:57:22;;;;;;;36.92;26.63;;;6.80;99.90;;;;;;5059568;28;20102;-73
2022/11/30 04:59:49;;;;;;;38.97;28.38;;;6.80;99.90;;;;;;5068537;28;20047;-73
2022/11/30 05:02:15;;;;;;;40.03;27.90;;;6.80;99.90;;;;;;5055063;28;20040;-73
2022/11/30 05:04:41;;;;;;;37.35;27.92;;;6.70;99.90;;;;;;5072547;28;20037;-73
2022/11/30 05:07:07;;;;;;;36.65;26.65;;;6.70;99.90;;;;;;5067653;28;20052;-73
2022/11/30 05:09:33;;;;;;;39.30;27.60;;;6.70;99.90;;;;;;5051756;28;20127;-73
2022/11/30 05:11:59;;;;;;;35.50;26.17;;;6.70;99.90;;;;;;5064130;28;20040;-72
2022/11/30 05:14:25;;;;;;;38.03;27.05;;;6.70;99.90;;;;;;5060825;28;20037;-72
2022/11/30 05:16:50;;;;;;;36.33;26.42;;;6.70;99.90;;;;;;5061191;28;20465;-72
2022/11/30 05:19:16;;;;;;;36.65;26.35;;;6.70;99.90;;;;;;5063139;28;20510;-72
2022/11/30 05:21:42;;;;;;;35.78;26.30;;;6.70;99.90;;;;;;5057998;28;20044;-73
2022/11/30 05:24:08;;;;;;;35.00;26.15;;;6.70;99.90;;;;;;5057489;28;20079;-73
2022/11/30 05:26:37;;;;;;;36.55;26.83;;;6.70;99.90;;;;;;5060602;28;20078;-72
2022/11/30 05:29:04;;;;;;;36.30;26.23;;;6.70;99.90;;;;;;5053978;28;20044;-73
2022/11/30 05:31:29;;;;;;;33.92;25.67;;;6.70;99.90;;;;;;5057784;28;20052;-73
2022/11/30 05:33:55;;;;;;;33.88;24.70;;;6.60;99.90;;;;;;5065516;28;20376;-73
2022/11/30 05:36:21;;;;;;;35.92;25.13;;;6.60;99.90;;;;;;5050657;28;20036;-73
2022/11/30 05:38:47;;;;;;;34.22;25.17;;;6.60;99.90;;;;;;5090127;27;20593;-73
2022/11/30 05:41:12;;;;;;;35.10;24.98;;;6.60;99.90;;;;;;5060123;28;20072;-72
2022/11/30 05:43:38;;;;;;;36.67;25.95;;;6.60;99.90;;;;;;5048871;28;20051;-73
2022/11/30 05:46:06;;;;;;;32.38;23.77;;;6.60;99.90;;;;;;5063593;28;20040;-72
2022/11/30 05:48:32;;;;;;;;;;;6.60;99.90;;;;;;5065470;28;20564;-72
2022/11/30 05:51:12;;;;;;;35.50;24.55;;;6.60;99.90;;;;;;5052153;28;19936;-72
2022/11/30 05:53:38;;;;;;;32.40;24.40;;;6.60;99.90;;;;;;5056268;28;20503;-72
2022/11/30 05:56:06;;;;;;;33.47;24.25;;;6.60;99.90;;;;;;5088236;28;20441;-73
2022/11/30 05:58:32;;;;;;;33.88;24.38;;;6.50;99.90;;;;;;5048186;28;20092;-73
2022/11/30 06:00:58;;;;;;;32.65;23.60;;;6.50;99.90;;;;;;5051884;28;20068;-72
2022/11/30 06:03:24;;;;;;;32.83;23.70;;;6.50;99.90;;;;;;5058696;28;20044;-72
2022/11/30 06:05:52;;;;;;;34.92;24.45;;;6.50;99.90;;;;;;5055484;28;20043;-72
2022/11/30 06:08:19;;;;;;;33.22;25.40;;;6.50;99.90;;;;;;5067841;28;20467;-72
2022/11/30 06:10:44;;;;;;;33.83;24.50;;;6.50;99.90;;;;;;5046971;28;20106;-72
2022/11/30 06:13:10;;;;;;;32.05;23.40;;;6.50;99.90;;;;;;5061956;28;20037;-72
2022/11/30 06:15:37;;;;;;;33.95;24.33;;;6.50;99.90;;;;;;5054901;28;20064;-72
2022/11/30 06:18:04;;;;;;;32.92;23.38;;;6.50;99.90;;;;;;5053060;28;20037;-72
2022/11/30 06:20:30;;;;;;;32.75;23.55;;;6.50;99.90;;;;;;5063226;28;20041;-72
2022/11/30 06:22:56;;;;;;;34.83;23.35;;;6.50;99.90;;;;;;5061465;28;20037;-73
2022/11/30 06:25:22;;;;;;;33.42;23.75;;;6.50;99.90;;;;;;5054664;28;20163;-73
2022/11/30 06:27:48;;;;;;;34.47;24.52;;;6.50;99.90;;;;;;5059229;28;20048;-73
2022/11/30 06:30:14;;;;;;;32.53;22.83;;;6.50;99.90;;;;;;5070184;28;20086;-72
2022/11/30 06:32:47;;;;;;;34.55;23.42;;;6.50;99.90;;;;;;5063272;28;20040;-72
2022/11/30 06:35:13;;;;;;;34.60;25.45;;;6.50;99.90;;;;;;5049915;28;20459;-73
2022/11/30 06:37:38;;;;;;;34.05;24.20;;;6.50;99.90;;;;;;5061477;28;20029;-72
2022/11/30 06:40:05;;;;;;;35.45;24.33;;;6.50;99.90;;;;;;5060666;28;20483;-73
2022/11/30 06:42:32;;;;;;;34.38;24.02;;;6.50;99.90;;;;;;5066026;28;20068;-73
2022/11/30 06:44:58;;;;;;;35.83;24.48;;;6.50;99.90;;;;;;5055548;28;20040;-72
2022/11/30 06:47:24;;;;;;;34.13;24.70;;;6.50;99.90;;;;;;5073774;28;20533;-72
2022/11/30 06:49:50;;;;;;;38.78;25.67;;;6.50;99.90;;;;;;5055342;28;20049;-72
2022/11/30 06:52:16;;;;;;;36.88;25.25;;;6.50;99.90;;;;;;5056787;28;20037;-72
2022/11/30 06:54:42;;;;;;;38.63;25.45;;;6.40;99.90;;;;;;5060460;28;20049;-72
2022/11/30 06:57:08;;;;;;;42.08;27.88;;;6.40;99.90;;;;;;5058832;28;20070;-72
2022/11/30 06:59:36;;;;;;;41.75;26.90;;;6.40;99.90;;;;;;5057903;28;20579;-72
2022/11/30 07:02:02;;;;;;;37.53;25.85;;;6.40;99.90;;;;;;5059216;28;20071;-72
2022/11/30 07:04:28;;;;;;;39.25;26.50;;;6.40;99.90;;;;;;5052760;28;20045;-72
2022/11/30 07:06:54;;;;;;;45.00;26.73;;;6.40;99.90;;;;;;5059586;28;20452;-73
2022/11/30 07:09:20;;;;;;;40.85;25.98;;;6.40;99.90;;;;;;5053300;28;20052;-72
2022/11/30 07:11:45;;;;;;;41.03;26.48;;;6.40;99.90;;;;;;5065534;28;20483;-72
2022/11/30 07:14:11;;;;;;;39.38;26.88;;;6.40;99.90;;;;;;5054126;28;20076;-70
2022/11/30 07:16:37;;;;;;;40.78;26.35;;;6.40;99.90;;;;;;5058368;28;20521;-72
2022/11/30 07:19:03;;;;;;;40.67;26.77;;;6.40;99.90;;;;;;5060394;28;20495;-72
2022/11/30 07:21:28;;;;;;;39.70;25.77;;;6.40;99.90;;;;;;5061964;28;20052;-72
2022/11/30 07:26:38;;;;;;;40.58;27.30;;;6.40;99.90;;;;;;5062805;28;20040;-71
2022/11/30 07:29:04;;;;;;;36.47;25.67;;;6.40;99.90;;;;;;5067622;28;20041;-72
2022/11/30 07:31:35;;;;;;;37.88;24.75;;;6.40;99.90;;;;;;5057862;28;20127;-71
2022/11/30 07:34:06;;;;;;;37.45;24.67;;;6.40;99.90;;;;;;5056463;28;20055;-71
2022/11/30 07:36:32;;;;;;;33.92;23.35;;;6.40;99.90;;;;;;5058015;28;20566;-71
2022/11/30 07:38:59;;;;;;;34.78;23.88;;;6.40;99.90;;;;;;5052310;28;20045;-72
2022/11/30 07:41:25;;;;;;;32.90;22.45;;;6.40;99.90;;;;;;5062418;28;20056;-71
2022/11/30 07:43:50;;;;;;;33.88;23.50;;;6.40;99.90;;;;;;5058786;28;20118;-72
2022/11/30 07:46:17;;;;;;;34.88;24.30;;;6.40;99.90;;;;;;5058076;28;20053;-71
2022/11/30 07:48:44;;;;;;;35.25;23.10;;;6.40;99.90;;;;;;5047715;28;20490;-72
2022/11/30 07:51:13;;;;;;;35.42;25.08;;;6.40;99.90;;;;;;5061346;28;20045;-72
2022/11/30 07:53:39;;;;;;;37.22;24.42;;;6.40;99.90;;;;;;5063697;28;20124;-72
2022/11/30 07:56:07;;;;;;;36.50;23.85;;;6.40;99.90;;;;;;5062255;28;20131;-72
2022/11/30 07:58:33;;;;;;;33.30;23.02;;;6.40;99.90;;;;;;5058008;28;20496;-71
2022/11/30 08:01:06;;;;;;;32.28;21.98;;;6.40;99.90;;;;;;5058395;28;20400;-71
2022/11/30 08:03:32;;;;;;;30.30;21.65;;;6.40;99.90;;;;;;5059439;28;20041;-72
2022/11/30 08:06:03;;;;;;;28.20;20.58;;;6.50;99.90;;;;;;5052436;28;20140;-72
2022/11/30 08:08:30;;;;;;;31.13;21.50;;;6.40;99.90;;;;;;5094698;28;20076;-72
2022/11/30 08:10:56;;;;;;;29.90;21.52;;;6.50;99.90;;;;;;5057794;28;20041;-72
2022/11/30 08:13:23;;;;;;;26.95;19.83;;;6.50;99.90;;;;;;5067669;28;20051;-71
2022/11/30 08:15:49;;;;;;;28.02;20.45;;;6.50;99.90;;;;;;5059660;28;20086;-72
2022/11/30 08:18:15;;;;;;;26.13;20.25;;;6.40;99.90;;;;;;5061202;28;20045;-72
2022/11/30 08:20:41;;;;;;;25.50;20.15;;;6.50;99.90;;;;;;5058908;28;20132;-71
2022/11/30 08:23:07;;;;;;;27.17;20.65;;;6.50;99.90;;;;;;5061878;28;20514;-76
2022/11/30 08:25:35;;;;;;;24.77;19.45;;;6.50;99.90;;;;;;5065186;28;20167;-80
2022/11/30 08:28:01;;;;;;;30.85;19.73;;;6.50;99.90;;;;;;5063862;28;20036;-78
2022/11/30 08:30:26;;;;;;;27.75;20.25;;;6.50;99.90;;;;;;5074350;28;20549;-75
2022/11/30 08:32:52;;;;;;;24.60;19.17;;;6.50;99.90;;;;;;5062445;28;20072;-77
2022/11/30 08:35:18;;;;;;;25.70;20.45;;;6.50;99.90;;;;;;5060092;28;20084;-76
2022/11/30 08:37:43;;;;;;;26.10;21.17;;;6.50;99.90;;;;;;5060590;28;20044;-81
2022/11/30 08:40:09;;;;;;;27.15;20.98;;;6.50;99.90;;;;;;5063725;28;20048;-77
2022/11/30 08:42:35;;;;;;;26.60;20.90;;;6.50;99.90;;;;;;5059895;28;20044;-76
2022/11/30 08:45:01;;;;;;;31.67;23.42;;;6.50;99.90;;;;;;5056601;28;20115;-76
2022/11/30 08:47:29;;;;;;;28.75;23.20;;;6.50;99.90;;;;;;5079522;28;20056;-76
2022/11/30 08:49:55;;;;;;;34.30;23.20;;;6.50;99.90;;;;;;5059805;28;20166;-77
2022/11/30 08:52:21;;;;;;;27.65;23.48;;;6.40;99.90;;;;;;5065964;28;20053;-76
2022/11/30 08:54:46;;;;;;;27.58;22.33;;;6.40;99.90;;;;;;5059156;28;20105;-77
2022/11/30 08:57:14;;;;;;;25.40;20.92;;;6.50;99.90;;;;;;5060500;28;20580;-78
2022/11/30 08:59:39;;;;;;;26.77;20.45;;;6.40;99.90;;;;;;5062462;28;20052;-74
2022/11/30 09:02:05;;;;;;;25.23;19.35;;;6.40;99.90;;;;;;5057786;28;20052;-76
2022/11/30 09:04:30;;;;;;;23.05;17.65;;;6.40;99.90;;;;;;5091213;28;20064;-77
2022/11/30 09:06:57;;;;;;;21.88;17.63;;;6.50;99.90;;;;;;5054183;28;20116;-78
2022/11/30 09:09:24;;;;;;;21.27;16.85;;;6.50;99.90;;;;;;5056675;28;20033;-72
2022/11/30 09:11:50;;;;;;;22.15;17.38;;;6.60;99.90;;;;;;5056894;28;20078;-77
2022/11/30 09:14:15;;;;;;;20.58;17.15;;;6.50;99.90;;;;;;5065170;28;20097;-78
2022/11/30 09:16:41;;;;;;;20.52;17.40;;;6.50;99.90;;;;;;5057096;28;20040;-77
2022/11/30 09:19:09;;;;;;;22.25;16.50;;;6.60;99.90;;;;;;5076147;28;20103;-77
2022/11/30 09:21:34;;;;;;;20.75;16.38;;;6.60;99.90;;;;;;5059789;28;20491;-75
2022/11/30 09:24:00;;;;;;;20.02;16.95;;;6.60;99.90;;;;;;5055754;28;20102;-77
2022/11/30 09:26:26;;;;;;;21.98;17.15;;;6.60;99.90;;;;;;5067322;28;20090;-77
2022/11/30 09:28:52;;;;;;;23.20;18.17;;;6.60;99.90;;;;;;5060660;28;20072;-77
2022/11/30 09:31:23;;;;;;;24.63;19.73;;;6.60;99.90;;;;;;5058611;28;20531;-76
2022/11/30 09:33:50;;;;;;;21.90;17.58;;;6.60;99.90;;;;;;5065150;28;20135;-76
2022/11/30 09:36:18;;;;;;;23.60;18.80;;;6.50;99.90;;;;;;5063345;28;20040;-76
2022/11/30 09:38:44;;;;;;;25.90;18.40;;;6.60;99.90;;;;;;5065800;28;20052;-77
2022/11/30 09:41:33;;;;;;;23.08;18.17;;;6.50;99.90;;;;;;5067315;28;20040;-77
2022/11/30 09:44:01;;;;;;;23.30;17.48;;;6.60;99.90;;;;;;5044716;28;20159;-79
2022/11/30 09:46:38;;;;;;;22.38;18.95;;;6.60;99.90;;;;;;5064285;28;20483;-80
2022/11/30 09:49:20;;;;;;;24.55;19.02;;;6.60;99.90;;;;;;5055470;28;20033;-79
2022/11/30 09:51:53;;;;;;;25.08;19.60;;;6.50;99.90;;;;;;5062289;28;20452;-71
2022/11/30 09:54:34;;;;;;;24.33;18.50;;;6.50;99.90;;;;;;5066673;28;20044;-71
2022/11/30 09:57:22;;;;;;;25.27;19.50;;;6.50;99.90;;;;;;5066875;28;20423;-70
2022/11/30 09:59:59;;;;;;;26.13;19.30;;;6.50;99.90;;;;;;5067927;28;20484;-71
2022/11/30 10:02:27;;;;;;;;;;;6.50;99.90;;;;;;5064108;28;20070;-70
2022/11/30 10:04:53;;;;;;;25.67;19.52;;;6.50;99.90;;;;;;5067439;28;19963;-71
2022/11/30 10:07:42;;;;;;;26.88;20.20;;;6.50;99.90;;;;;;5068405;28;20076;-71
2022/11/30 10:10:39;;;;;;;26.27;20.02;;;6.50;99.90;;;;;;5068756;28;20075;-71
2022/11/30 10:13:33;;;;;;;26.20;20.52;;;6.50;99.90;;;;;;5067536;28;20721;-70
2022/11/30 10:16:19;;;;;;;29.58;21.27;;;6.50;99.90;;;;;;5065993;28;20068;-71
2022/11/30 10:19:06;;;;;;;29.70;21.98;;;6.50;99.90;;;;;;5059022;28;20063;-71
2022/11/30 10:21:59;;;;;;;30.48;22.90;;;6.50;99.90;;;;;;5067652;28;20052;-71
2022/11/30 10:24:43;;;;;;;27.67;21.95;;;6.50;99.90;;;;;;5067444;28;20127;-72
2022/11/30 10:27:59;;;;;;;30.17;22.55;;;6.50;99.90;;;;;;5075641;28;20059;-76
2022/11/30 10:30:32;;;;;;;31.63;22.17;;;6.50;99.90;;;;;;5064492;28;20056;-76
2022/11/30 10:33:08;;;;;;;29.67;22.48;;;6.60;99.90;;;;;;5057778;28;20049;-80
2022/11/30 10:35:58;;;;;;;30.00;21.95;;;6.60;99.90;;;;;;5051510;28;20131;-77
2022/11/30 10:38:47;;;;;;;29.38;22.48;;;6.60;99.90;;;;;;5062582;28;20452;-79
2022/11/30 10:41:41;;;;;;;26.98;21.50;;;6.60;99.90;;;;;;5060711;28;20544;-79
2022/11/30 10:44:16;;;;;;;27.98;21.27;;;6.60;99.90;;;;;;5047667;28;20114;-79
2022/11/30 10:46:50;;;;;;;27.60;21.23;;;6.60;99.90;;;;;;5053404;28;20111;-79
2022/11/30 10:49:18;;;;;;;28.15;21.38;;;6.60;99.90;;;;;;5065518;28;20028;-77
2022/11/30 10:51:49;;;;;;;26.65;22.95;;;6.60;99.90;;;;;;5065023;28;20076;-80
2022/11/30 10:54:21;;;;;;;28.02;22.13;;;6.60;99.90;;;;;;5066311;28;20090;-72
2022/11/30 10:56:47;;;;;;;28.67;21.88;;;6.70;99.90;;;;;;5065121;28;20052;-72
2022/11/30 10:59:23;;;;;;;26.20;21.27;;;6.60;99.90;;;;;;5067348;28;20055;-71
2022/11/30 11:01:51;;;;;;;27.67;22.05;;;6.70;99.90;;;;;;5063691;28;20486;-70
2022/11/30 11:04:22;;;;;;;26.52;21.17;;;6.70;99.90;;;;;;5063762;28;20086;-69
2022/11/30 11:06:52;;;;;;;26.80;21.95;;;6.70;99.90;;;;;;5067145;28;20643;-70
2022/11/30 11:09:30;;;;;;;28.10;22.35;;;6.70;99.90;;;;;;5065994;28;20056;-70
2022/11/30 11:12:19;;;;;;;31.00;24.95;;;6.70;99.90;;;;;;5064066;28;20048;-72
2022/11/30 11:14:45;;;;;;;31.15;24.45;;;6.70;99.90;;;;;;5060933;28;20498;-77
2022/11/30 11:17:17;;;;;;;30.10;25.25;;;6.70;99.90;;;;;;5055514;28;20041;-72
2022/11/30 11:19:43;;;;;;;33.30;26.38;;;6.70;99.90;;;;;;5049255;28;20125;-74
2022/11/30 11:22:12;;;;;;;29.60;25.25;;;6.60;99.90;;;;;;5063931;28;20060;-73
2022/11/30 11:24:38;;;;;;;32.50;26.10;;;6.60;99.90;;;;;;5060963;28;20098;-74
2022/11/30 11:27:03;;;;;;;34.55;28.55;;;6.70;99.90;;;;;;5065518;28;20040;-73
2022/11/30 11:29:34;;;;;;;31.23;25.30;;;6.60;99.90;;;;;;5063233;28;20036;-73
2022/11/30 11:32:25;;;;;;;34.08;27.20;;;6.70;99.90;;;;;;5062103;28;20052;-74
2022/11/30 11:34:52;;;;;;;35.03;26.50;;;6.60;99.90;;;;;;5068674;28;20410;-75
2022/11/30 11:37:29;;;;;;;33.00;26.33;;;6.60;99.90;;;;;;5064457;28;20082;-78
2022/11/30 11:39:56;;;;;;;;;;;6.70;99.90;;;;;;5064256;28;20507;-75
2022/11/30 11:42:23;;;;;;;34.25;27.20;;;6.70;99.90;;;;;;5066682;28;19920;-72
2022/11/30 11:44:54;;;;;;;37.10;28.42;;;6.60;99.90;;;;;;5070264;28;20120;-72
2022/11/30 11:47:43;;;;;;;38.92;29.73;;;6.70;99.90;;;;;;5078313;28;20044;-68
2022/11/30 11:50:24;;;;;;;35.30;27.95;;;6.70;99.90;;;;;;5063426;28;20042;-67
2022/11/30 11:53:04;;;;;;;36.88;29.05;;;6.70;99.90;;;;;;5061818;28;20040;-73
2022/11/30 11:55:30;;;;;;;36.28;27.50;;;6.60;99.90;;;;;;5065994;28;20071;-70
2022/11/30 11:58:01;;;;;;;37.15;28.52;;;6.60;99.90;;;;;;5067264;28;20045;-71
2022/11/30 12:00:26;;;;;;;38.55;28.70;;;6.60;99.90;;;;;;5059092;28;20041;-69
2022/11/30 12:03:35;;;;;;;36.75;28.52;;;6.60;99.90;;;;;;5064790;28;20090;-71
2022/11/30 12:06:09;;;;;;;34.65;27.02;;;6.60;99.90;;;;;;5094366;28;20048;-72
2022/11/30 12:08:55;;;;;;;36.08;27.48;;;6.60;99.90;;;;;;5061949;28;20057;-72
2022/11/30 12:11:42;;;;;;;34.90;25.98;;;6.60;99.90;;;;;;5066391;28;20059;-71
2022/11/30 12:14:14;;;;;;;39.80;28.60;;;6.70;99.90;;;;;;5064866;28;20060;-72
2022/11/30 12:17:08;;;;;;;38.70;27.55;;;6.70;99.90;;;;;;5062052;28;20044;-72
2022/11/30 12:19:40;;;;;;;36.50;26.55;;;6.70;99.90;;;;;;5053925;28;20039;-72
2022/11/30 12:22:17;;;;;;;38.15;27.00;;;6.70;99.90;;;;;;5094490;28;20037;-71
2022/11/30 12:24:51;;;;;;;;;;;6.70;99.90;;;;;;5058001;28;20067;-71
2022/11/30 12:27:52;;;;;;;44.60;29.77;;;6.70;99.90;;;;;;5062546;28;19962;-71
2022/11/30 12:30:22;;;;;;;48.08;31.52;;;6.70;99.90;;;;;;5029740;28;20053;-71
2022/11/30 12:33:21;;;;;;;53.08;34.28;;;6.70;99.90;;;;;;5054371;28;20064;-73
2022/11/30 12:35:55;;;;;;;57.25;34.08;;;6.60;99.90;;;;;;5070064;28;20053;-72
2022/11/30 12:38:48;;;;;;;52.92;33.53;;;6.60;99.90;;;;;;5061646;28;20135;-72
2022/11/30 12:41:29;;;;;;;56.42;33.30;;;6.50;99.90;;;;;;5090739;28;20098;-71
2022/11/30 12:44:13;;;;;;;56.53;34.97;;;6.60;99.90;;;;;;5076195;28;20040;-71
2022/11/30 12:47:07;;;;;;;53.47;33.78;;;6.60;99.90;;;;;;5071469;28;20044;-71
2022/11/30 12:50:00;;;;;;;59.10;36.05;;;6.60;99.90;;;;;;5061112;28;20049;-72
2022/11/30 12:52:52;;;;;;;56.85;34.97;;;6.60;99.90;;;;;;5074151;28;20043;-70
2022/11/30 12:55:26;;;;;;;57.40;36.88;;;6.60;99.90;;;;;;5063829;28;20129;-71
2022/11/30 12:58:02;;;;;;;57.20;38.35;;;6.60;99.90;;;;;;5064613;28;20043;-71